createdAt,value
2018-08-25T09:45:55.844Z,12.32
2018-08-25T09:45:55.945Z,16.48
2018-08-25T09:45:56.073Z,14.85
2018-08-25T09:45:56.148Z,16.4
2018-08-25T09:45:56.201Z,16.23
2018-08-25T09:45:56.290Z,15.27
2018-08-25T09:45:56.357Z,15.16
2018-08-25T09:45:56.393Z,15.64
2018-08-25T09:45:56.457Z,15.82
2018-08-25T09:45:56.543Z,16.18
2018-08-25T09:45:56.587Z,14.85
2018-08-25T09:45:56.642Z,17.47
2018-08-25T09:45:56.712Z,15.27
2018-08-25T09:45:56.777Z,16.42
2018-08-25T09:45:56.872Z,15.61
2018-08-25T09:45:56.969Z,16.35
2018-08-25T09:45:57.071Z,14.68
2018-08-25T09:45:57.169Z,17.62
2018-08-25T09:45:57.238Z,13.77
2018-08-25T09:45:57.366Z,17.42
2018-08-25T09:45:57.464Z,17.48
2018-08-25T09:45:57.615Z,17.06
2018-08-25T09:45:57.653Z,16.94
2018-08-25T09:45:57.788Z,16.63
2018-08-25T09:45:57.932Z,20.92
2018-08-25T09:45:57.982Z,20.47
2018-08-25T09:45:58.052Z,16.14
2018-08-25T09:45:58.111Z,15.69
2018-08-25T09:45:58.161Z,15.22
2018-08-25T09:45:58.233Z,16.32
2018-08-25T09:45:58.307Z,16.34
2018-08-25T09:45:58.383Z,15.84
2018-08-25T09:45:58.454Z,15.43
2018-08-25T09:45:58.496Z,14.22
2018-08-25T09:45:58.581Z,15.73
2018-08-25T09:45:58.652Z,15.79
2018-08-25T09:45:58.713Z,15.62
2018-08-25T09:45:58.794Z,16.27
2018-08-25T09:45:58.889Z,16.9
2018-08-25T09:45:58.954Z,16.53
2018-08-25T09:45:59.065Z,12.34
2018-08-25T09:45:59.129Z,15.6
2018-08-25T09:45:59.189Z,14.28
2018-08-25T09:45:59.262Z,15.6
2018-08-25T09:45:59.321Z,16.89
2018-08-25T09:45:59.392Z,15.69
2018-08-25T09:45:59.448Z,15.37
2018-08-25T09:45:59.520Z,14.19
2018-08-25T09:45:59.612Z,16.21
2018-08-25T09:45:59.724Z,13.53
2018-08-25T09:45:59.804Z,14.99
2018-08-25T09:45:59.862Z,16.38
2018-08-25T09:45:59.925Z,12.98
2018-08-25T09:46:00.000Z,13.3
2018-08-25T09:46:00.054Z,14.99
2018-08-25T09:46:00.149Z,14.38
2018-08-25T09:46:00.227Z,15.29
2018-08-25T09:46:00.275Z,14.1
2018-08-25T09:46:00.332Z,14.52
2018-08-25T09:46:00.480Z,14.63
2018-08-25T09:46:00.547Z,13.89
2018-08-25T09:46:00.623Z,13.76
2018-08-25T09:46:00.674Z,14.23
2018-08-25T09:46:00.740Z,12.67
2018-08-25T09:46:00.804Z,14.24
2018-08-25T09:46:00.852Z,13.69
2018-08-25T09:46:00.982Z,10.76
2018-08-25T09:46:01.013Z,14.93
2018-08-25T09:46:01.048Z,14.85
2018-08-25T09:46:01.118Z,14.16
2018-08-25T09:46:01.197Z,14.27
2018-08-25T09:46:01.318Z,14.86
2018-08-25T09:46:01.458Z,15.14
2018-08-25T09:46:01.608Z,14.11
2018-08-25T09:46:01.647Z,15.34
2018-08-25T09:46:01.706Z,13.74
2018-08-25T09:46:01.772Z,14.26
2018-08-25T09:46:01.864Z,13.63
2018-08-25T09:46:01.943Z,13.08
2018-08-25T09:46:02.007Z,14.02
2018-08-25T09:46:02.093Z,15.47
2018-08-25T09:46:02.145Z,17.18
2018-08-25T09:46:02.232Z,15.42
2018-08-25T09:46:02.259Z,15.59
2018-08-25T09:46:02.365Z,12.64
2018-08-25T09:46:02.427Z,11.12
2018-08-25T09:46:02.487Z,13.41
2018-08-25T09:46:02.566Z,15.25
2018-08-25T09:46:02.619Z,15.08
2018-08-25T09:46:02.778Z,15.75
2018-08-25T09:46:02.798Z,15.49
2018-08-25T09:46:02.837Z,12.41
2018-08-25T09:46:02.944Z,13.23
2018-08-25T09:46:02.987Z,13.63
2018-08-25T09:46:03.053Z,16.28
2018-08-25T09:46:03.133Z,14.26
2018-08-25T09:46:03.231Z,14.75
2018-08-25T09:46:03.314Z,14.74
2018-08-25T09:46:03.444Z,13.68
2018-08-25T09:46:03.521Z,15.48
2018-08-25T09:46:03.631Z,15.89
2018-08-25T09:46:03.808Z,14.39
2018-08-25T09:46:03.858Z,15.6
2018-08-25T09:46:03.920Z,12.11
2018-08-25T09:46:03.983Z,15.49
2018-08-25T09:46:04.046Z,14.08
2018-08-25T09:46:04.090Z,15.76
2018-08-25T09:46:04.165Z,14.44
2018-08-25T09:46:04.218Z,15.67
2018-08-25T09:46:04.315Z,13.97
2018-08-25T09:46:04.389Z,15.2
2018-08-25T09:46:04.467Z,14.9
2018-08-25T09:46:04.548Z,16.71
2018-08-25T09:46:04.601Z,18.5
2018-08-25T09:46:04.663Z,15.58
2018-08-25T09:46:04.733Z,15.11
2018-08-25T09:46:04.796Z,14.41
2018-08-25T09:46:04.871Z,13.81
2018-08-25T09:46:04.936Z,14.86
2018-08-25T09:46:05.029Z,14.99
2018-08-25T09:46:05.082Z,17.29
2018-08-25T09:46:05.117Z,15.61
2018-08-25T09:46:05.203Z,17.19
2018-08-25T09:46:05.320Z,16.19
2018-08-25T09:46:05.397Z,17.64
2018-08-25T09:46:05.444Z,15.41
2018-08-25T09:46:05.514Z,17.21
2018-08-25T09:46:05.546Z,13.81
2018-08-25T09:46:05.621Z,16.48
2018-08-25T09:46:05.691Z,18.79
2018-08-25T09:46:05.735Z,15.64
2018-08-25T09:46:05.813Z,17.36
2018-08-25T09:46:05.857Z,15.14
2018-08-25T09:46:05.957Z,16.78
2018-08-25T09:46:05.982Z,15.73
2018-08-25T09:46:06.084Z,17.82
2018-08-25T09:46:06.172Z,16.84
2018-08-25T09:46:06.227Z,17.21
2018-08-25T09:46:06.277Z,18.12
2018-08-25T09:46:06.349Z,15.84
2018-08-25T09:46:06.437Z,19.32
2018-08-25T09:46:06.491Z,18.24
2018-08-25T09:46:06.562Z,17.27
2018-08-25T09:46:06.613Z,19.59
2018-08-25T09:46:06.688Z,15.93
2018-08-25T09:46:06.753Z,17.31
2018-08-25T09:46:06.820Z,17.5
2018-08-25T09:46:06.938Z,16.07
2018-08-25T09:46:07.014Z,17.47
2018-08-25T09:46:07.056Z,16.72
2018-08-25T09:46:07.108Z,14.9
2018-08-25T09:46:07.187Z,15.84
2018-08-25T09:46:07.242Z,17.38
2018-08-25T09:46:07.302Z,17.6
2018-08-25T09:46:07.376Z,16.19
2018-08-25T09:46:07.444Z,15.99
2018-08-25T09:46:07.503Z,18.35
2018-08-25T09:46:07.563Z,19.42
2018-08-25T09:46:07.613Z,16.49
2018-08-25T09:46:07.757Z,17.12
2018-08-25T09:46:07.821Z,17.49
2018-08-25T09:46:07.897Z,18.64
2018-08-25T09:46:07.972Z,17.78
2018-08-25T09:46:08.053Z,20.81
2018-08-25T09:46:08.093Z,15.86
2018-08-25T09:46:08.155Z,16.63
2018-08-25T09:46:08.230Z,17.62
2018-08-25T09:46:08.324Z,17.52
2018-08-25T09:46:08.397Z,16.82
2018-08-25T09:46:08.488Z,16.73
2018-08-25T09:46:08.624Z,19.29
2018-08-25T09:46:08.683Z,18.49
2018-08-25T09:46:08.793Z,15.88
2018-08-25T09:46:08.896Z,20.88
2018-08-25T09:46:09.007Z,17.86
2018-08-25T09:46:09.111Z,19.07
2018-08-25T09:46:09.209Z,17.8
2018-08-25T09:46:09.322Z,16.66
2018-08-25T09:46:09.426Z,16.35
2018-08-25T09:46:09.571Z,19.41
2018-08-25T09:46:09.653Z,16.35
2018-08-25T09:46:09.706Z,18.07
2018-08-25T09:46:09.765Z,17.1
2018-08-25T09:46:09.821Z,20.37
2018-08-25T09:46:09.885Z,16.01
2018-08-25T09:46:09.951Z,18.93
2018-08-25T09:46:10.028Z,16.51
2018-08-25T09:46:10.090Z,18.14
2018-08-25T09:46:10.149Z,15.34
2018-08-25T09:46:10.250Z,17.58
2018-08-25T09:46:10.275Z,17.14
2018-08-25T09:46:10.344Z,17.38
2018-08-25T09:46:10.416Z,16.34
2018-08-25T09:46:10.504Z,16.71
2018-08-25T09:46:10.572Z,16.78
2018-08-25T09:46:10.638Z,15.17
2018-08-25T09:46:10.717Z,16.34
2018-08-25T09:46:10.782Z,14.49
2018-08-25T09:46:10.823Z,17.79
2018-08-25T09:46:10.914Z,15.9
2018-08-25T09:46:10.960Z,16.79
2018-08-25T09:46:11.034Z,15.1
2018-08-25T09:46:11.101Z,14.4
2018-08-25T09:46:11.189Z,15.39
2018-08-25T09:46:11.290Z,17.34
2018-08-25T09:46:11.336Z,13.82
2018-08-25T09:46:11.406Z,13.98
2018-08-25T09:46:11.518Z,13.38
2018-08-25T09:46:11.637Z,15.9
2018-08-25T09:46:11.746Z,15.15
2018-08-25T09:46:11.797Z,12.3
2018-08-25T09:46:11.936Z,11.11
2018-08-25T09:46:11.940Z,13.02
2018-08-25T09:46:11.988Z,14.28
2018-08-25T09:46:12.102Z,12.84
2018-08-25T09:46:12.171Z,12.8
2018-08-25T09:46:12.271Z,13.49
2018-08-25T09:46:12.290Z,13.3
2018-08-25T09:46:12.369Z,11.04
2018-08-25T09:46:12.418Z,12.28
2018-08-25T09:46:12.485Z,11.87
2018-08-25T09:46:12.549Z,13.46
2018-08-25T09:46:12.634Z,11.98
2018-08-25T09:46:12.725Z,10.68
2018-08-25T09:46:12.871Z,12.81
2018-08-25T09:46:12.975Z,16.19
2018-08-25T09:46:13.039Z,14.06
2018-08-25T09:46:13.127Z,12.26
2018-08-25T09:46:13.162Z,11.74
2018-08-25T09:46:13.217Z,12.92
2018-08-25T09:46:13.297Z,15.33
2018-08-25T09:46:13.366Z,14.15
2018-08-25T09:46:13.440Z,13.2
2018-08-25T09:46:13.570Z,13.64
2018-08-25T09:46:13.614Z,12.81
2018-08-25T09:46:13.655Z,12.59
2018-08-25T09:46:13.723Z,12.25
2018-08-25T09:46:13.801Z,9.28
2018-08-25T09:46:13.887Z,9.31
2018-08-25T09:46:14.015Z,9.56
2018-08-25T09:46:14.110Z,9.58
2018-08-25T09:46:14.145Z,9.39
2018-08-25T09:46:14.207Z,11.06
2018-08-25T09:46:14.304Z,13.01
2018-08-25T09:46:14.353Z,12.84
2018-08-25T09:46:14.409Z,9.95
2018-08-25T09:46:14.464Z,11.6
2018-08-25T09:46:14.578Z,13.47
2018-08-25T09:46:14.642Z,12.73
2018-08-25T09:46:14.695Z,11.57
2018-08-25T09:46:14.789Z,13.29
2018-08-25T09:46:14.847Z,12.88
2018-08-25T09:46:14.923Z,13.95
2018-08-25T09:46:14.969Z,12.53
2018-08-25T09:46:15.069Z,15.03
2018-08-25T09:46:15.123Z,13.5
2018-08-25T09:46:15.172Z,12.19
2018-08-25T09:46:15.259Z,15.69
2018-08-25T09:46:15.299Z,15.44
2018-08-25T09:46:15.421Z,9.22
2018-08-25T09:46:15.493Z,10.25
2018-08-25T09:46:15.617Z,9.95
2018-08-25T09:46:15.719Z,11.24
2018-08-25T09:46:15.818Z,13.39
2018-08-25T09:46:15.891Z,12.91
2018-08-25T09:46:15.943Z,9.93
2018-08-25T09:46:16.001Z,10.21
2018-08-25T09:46:16.067Z,10.13
2018-08-25T09:46:16.153Z,11.83
2018-08-25T09:46:16.195Z,9.34
2018-08-25T09:46:16.274Z,12.18
2018-08-25T09:46:16.322Z,11.89
2018-08-25T09:46:16.387Z,11.43
2018-08-25T09:46:16.463Z,10.98
2018-08-25T09:46:16.536Z,9.3
2018-08-25T09:46:16.630Z,13.33
2018-08-25T09:46:16.682Z,12.39
2018-08-25T09:46:16.775Z,11.89
2018-08-25T09:46:16.846Z,12.79
2018-08-25T09:46:16.901Z,11.17
2018-08-25T09:46:16.959Z,13.17
2018-08-25T09:46:17.055Z,12.3
2018-08-25T09:46:17.111Z,11.18
2018-08-25T09:46:17.173Z,11.01
2018-08-25T09:46:17.237Z,11.84
2018-08-25T09:46:17.299Z,11.3
2018-08-25T09:46:17.371Z,11.19
2018-08-25T09:46:17.462Z,11.94
2018-08-25T09:46:17.536Z,12.52
2018-08-25T09:46:17.590Z,13.42
2018-08-25T09:46:17.657Z,10.58
2018-08-25T09:46:17.743Z,13.31
2018-08-25T09:46:17.789Z,11.14
2018-08-25T09:46:17.857Z,12.94
2018-08-25T09:46:17.936Z,12.27
2018-08-25T09:46:17.994Z,11.67
2018-08-25T09:46:18.069Z,12.3
2018-08-25T09:46:18.113Z,12.97
2018-08-25T09:46:18.194Z,13.44
2018-08-25T09:46:18.282Z,12.5
2018-08-25T09:46:18.365Z,13.61
2018-08-25T09:46:18.450Z,12.95
2018-08-25T09:46:18.518Z,12.78
2018-08-25T09:46:18.555Z,14.43
2018-08-25T09:46:18.624Z,12.25
2018-08-25T09:46:18.701Z,13.27
2018-08-25T09:46:18.765Z,13.35
2018-08-25T09:46:18.801Z,14.09
2018-08-25T09:46:18.853Z,13.89
2018-08-25T09:46:18.927Z,12.91
2018-08-25T09:46:19.018Z,15.7
2018-08-25T09:46:19.085Z,14.74
2018-08-25T09:46:19.155Z,14.97
2018-08-25T09:46:19.225Z,14.3
2018-08-25T09:46:19.276Z,14.13
2018-08-25T09:46:19.356Z,13.46
2018-08-25T09:46:19.403Z,14.91
2018-08-25T09:46:19.495Z,13.39
2018-08-25T09:46:19.608Z,15.45
2018-08-25T09:46:19.683Z,13.47
2018-08-25T09:46:19.744Z,15.43
2018-08-25T09:46:19.817Z,15.23
2018-08-25T09:46:19.923Z,13.37
2018-08-25T09:46:20.018Z,14.42
2018-08-25T09:46:20.082Z,15.04
2018-08-25T09:46:20.140Z,14.33
2018-08-25T09:46:20.235Z,14.53
2018-08-25T09:46:20.269Z,16.43
2018-08-25T09:46:20.358Z,16.68
2018-08-25T09:46:20.389Z,17.37
2018-08-25T09:46:20.476Z,14.79
2018-08-25T09:46:20.539Z,14.87
2018-08-25T09:46:20.605Z,15.38
2018-08-25T09:46:20.680Z,15.02
2018-08-25T09:46:20.779Z,13.86
2018-08-25T09:46:20.885Z,12.86
2018-08-25T09:46:20.953Z,14.67
2018-08-25T09:46:21.029Z,17.61
2018-08-25T09:46:21.103Z,15.41
2018-08-25T09:46:21.147Z,14.2
2018-08-25T09:46:21.192Z,13.82
2018-08-25T09:46:21.257Z,14.57
2018-08-25T09:46:21.317Z,14.59
2018-08-25T09:46:21.382Z,18.34
2018-08-25T09:46:21.432Z,15.74
2018-08-25T09:46:21.506Z,11.83
2018-08-25T09:46:21.582Z,13.36
2018-08-25T09:46:21.664Z,12.64
2018-08-25T09:46:21.754Z,13.54
2018-08-25T09:46:22.027Z,13.42
2018-08-25T09:46:22.138Z,15.19
2018-08-25T09:46:22.191Z,12.28
2018-08-25T09:46:22.275Z,13.49
2018-08-25T09:46:22.352Z,13.88
2018-08-25T09:46:22.412Z,13.67
2018-08-25T09:46:22.491Z,13.68
2018-08-25T09:46:22.562Z,14.21
2018-08-25T09:46:22.608Z,13.22
2018-08-25T09:46:22.672Z,14.32
2018-08-25T09:46:22.739Z,13.17
2018-08-25T09:46:22.840Z,16.17
2018-08-25T09:46:22.916Z,12.2
2018-08-25T09:46:22.990Z,13.52
2018-08-25T09:46:23.067Z,14.9
2018-08-25T09:46:23.118Z,14.44
2018-08-25T09:46:23.178Z,14.32
2018-08-25T09:46:23.245Z,14.74
2018-08-25T09:46:23.306Z,14.7
2018-08-25T09:46:23.364Z,14.9
2018-08-25T09:46:23.416Z,15.12
2018-08-25T09:46:23.529Z,15.34
2018-08-25T09:46:23.553Z,14.23
2018-08-25T09:46:23.616Z,14.5
2018-08-25T09:46:23.728Z,13.25
2018-08-25T09:46:23.784Z,14.2
2018-08-25T09:46:23.868Z,12.68
2018-08-25T09:46:23.907Z,13.42
2018-08-25T09:46:23.993Z,12.93
2018-08-25T09:46:24.049Z,14.35
2018-08-25T09:46:24.126Z,11.19
2018-08-25T09:46:24.175Z,12.64
2018-08-25T09:46:24.256Z,13.61
2018-08-25T09:46:24.311Z,13.22
2018-08-25T09:46:24.374Z,12.34
2018-08-25T09:46:24.432Z,12.01
2018-08-25T09:46:24.566Z,12.81
2018-08-25T09:46:24.606Z,12.75
2018-08-25T09:46:24.680Z,12.37
2018-08-25T09:46:24.717Z,13.07
2018-08-25T09:46:24.765Z,12.38
2018-08-25T09:46:24.834Z,14.93
2018-08-25T09:46:24.901Z,15.19
2018-08-25T09:46:24.957Z,12.61
2018-08-25T09:46:25.046Z,12.65
2018-08-25T09:46:25.089Z,13.44
2018-08-25T09:46:25.169Z,13.89
2018-08-25T09:46:25.242Z,14.34
2018-08-25T09:46:25.319Z,12.67
2018-08-25T09:46:25.383Z,13.73
2018-08-25T09:46:25.424Z,13.88
2018-08-25T09:46:25.517Z,10.96
2018-08-25T09:46:25.573Z,13.48
2018-08-25T09:46:25.625Z,14.57
2018-08-25T09:46:25.809Z,12.5
2018-08-25T09:46:25.839Z,14.47
2018-08-25T09:46:25.893Z,14.24
2018-08-25T09:46:25.965Z,12.23
2018-08-25T09:46:26.045Z,15.58
2018-08-25T09:46:26.085Z,12.91
2018-08-25T09:46:26.210Z,13.21
2018-08-25T09:46:26.256Z,14
2018-08-25T09:46:26.336Z,13.77
2018-08-25T09:46:26.389Z,15.57
2018-08-25T09:46:26.464Z,14.88
2018-08-25T09:46:26.533Z,13.13
2018-08-25T09:46:26.571Z,15.23
2018-08-25T09:46:26.652Z,14.2
2018-08-25T09:46:26.711Z,15.68
2018-08-25T09:46:26.780Z,13.73
2018-08-25T09:46:26.846Z,16.55
2018-08-25T09:46:26.932Z,14.52
2018-08-25T09:46:27.057Z,15.99
2018-08-25T09:46:27.107Z,13.88
2018-08-25T09:46:27.171Z,15.51
2018-08-25T09:46:27.237Z,11.78
2018-08-25T09:46:27.320Z,14.35
2018-08-25T09:46:27.372Z,14.04
2018-08-25T09:46:27.415Z,13.96
2018-08-25T09:46:27.486Z,13.97
2018-08-25T09:46:27.560Z,13.57
2018-08-25T09:46:27.608Z,14.88
2018-08-25T09:46:27.664Z,12.45
2018-08-25T09:46:27.731Z,13.46
2018-08-25T09:46:27.805Z,12.41
2018-08-25T09:46:27.902Z,14.99
2018-08-25T09:46:27.942Z,14.68
2018-08-25T09:46:28.034Z,13.23
2018-08-25T09:46:28.117Z,14.97
2018-08-25T09:46:29.214Z,14.76
2018-08-25T09:46:29.319Z,14.17
2018-08-25T09:46:29.370Z,12.32
2018-08-25T09:46:29.452Z,13.46
2018-08-25T09:46:29.486Z,12.01
2018-08-25T09:46:29.551Z,13.2
2018-08-25T09:46:29.629Z,11.88
2018-08-25T09:46:29.707Z,13.54
2018-08-25T09:46:29.773Z,13.13
2018-08-25T09:46:29.819Z,13.9
2018-08-25T09:46:29.892Z,14.68
2018-08-25T09:46:29.937Z,13.67
2018-08-25T09:46:30.002Z,15.51
2018-08-25T09:46:30.092Z,16.95
2018-08-25T09:46:30.169Z,16.47
2018-08-25T09:46:30.232Z,17.06
2018-08-25T09:46:30.302Z,16.73
2018-08-25T09:46:30.345Z,13.75
2018-08-25T09:46:30.434Z,15.31
2018-08-25T09:46:30.477Z,15.67
2018-08-25T09:46:30.585Z,15.55
2018-08-25T09:46:30.628Z,17.85
2018-08-25T09:46:30.698Z,16.01
2018-08-25T09:46:30.742Z,14.57
2018-08-25T09:46:30.809Z,15.58
2018-08-25T09:46:30.891Z,15.05
2018-08-25T09:46:31.001Z,14.07
2018-08-25T09:46:31.076Z,15.21
2018-08-25T09:46:31.145Z,16.71
2018-08-25T09:46:31.193Z,15.75
2018-08-25T09:46:31.254Z,15.07
2018-08-25T09:46:31.321Z,16.79
2018-08-25T09:46:31.387Z,14.32
2018-08-25T09:46:31.453Z,15.41
2018-08-25T09:46:31.572Z,14.82
2018-08-25T09:46:31.598Z,14.14
2018-08-25T09:46:31.729Z,14.59
2018-08-25T09:46:31.826Z,13.7
2018-08-25T09:46:31.868Z,15.83
2018-08-25T09:46:31.954Z,16.4
2018-08-25T09:46:32.003Z,13.04
2018-08-25T09:46:32.056Z,14.14
2018-08-25T09:46:32.104Z,13.57
2018-08-25T09:46:32.183Z,14.37
2018-08-25T09:46:32.256Z,14.57
2018-08-25T09:46:32.323Z,18
2018-08-25T09:46:32.406Z,16.82
2018-08-25T09:46:32.451Z,16.45
2018-08-25T09:46:32.499Z,13.82
2018-08-25T09:46:32.592Z,15.73
2018-08-25T09:46:32.673Z,16.55
2018-08-25T09:46:32.788Z,16.27
2018-08-25T09:46:32.877Z,15.23
2018-08-25T09:46:32.936Z,17.68
2018-08-25T09:46:32.995Z,17.11
2018-08-25T09:46:33.060Z,15.58
2018-08-25T09:46:33.132Z,18.46
2018-08-25T09:46:33.267Z,14.86
2018-08-25T09:46:33.292Z,16.8
2018-08-25T09:46:33.390Z,16.56
2018-08-25T09:46:33.483Z,16.97
2018-08-25T09:46:33.538Z,16.43
2018-08-25T09:46:33.635Z,14.53
2018-08-25T09:46:33.711Z,16.47
2018-08-25T09:46:33.765Z,15.52
2018-08-25T09:46:33.852Z,15.91
2018-08-25T09:46:33.889Z,14.02
2018-08-25T09:46:33.945Z,16.85
2018-08-25T09:46:34.017Z,14.19
2018-08-25T09:46:34.090Z,19.01
2018-08-25T09:46:34.162Z,18.23
2018-08-25T09:46:34.237Z,15.93
2018-08-25T09:46:34.297Z,15.92
2018-08-25T09:46:34.351Z,16.19
2018-08-25T09:46:34.454Z,16.32
2018-08-25T09:46:34.575Z,15.5
2018-08-25T09:46:34.643Z,15.73
2018-08-25T09:46:34.698Z,16.82
2018-08-25T09:46:34.769Z,17.82
2018-08-25T09:46:34.822Z,16.39
2018-08-25T09:46:34.884Z,14.06
2018-08-25T09:46:34.954Z,14.64
2018-08-25T09:46:35.012Z,16.13
2018-08-25T09:46:35.089Z,14.11
2018-08-25T09:46:35.141Z,14.02
2018-08-25T09:46:35.239Z,12.93
2018-08-25T09:46:35.276Z,14.71
2018-08-25T09:46:35.394Z,13.79
2018-08-25T09:46:35.489Z,13
2018-08-25T09:46:35.503Z,14.3
2018-08-25T09:46:35.581Z,14.42
2018-08-25T09:46:35.611Z,14.42
2018-08-25T09:46:35.650Z,14.66
2018-08-25T09:46:35.708Z,15.6
2018-08-25T09:46:35.778Z,14.7
2018-08-25T09:46:35.840Z,13.13
2018-08-25T09:46:35.878Z,13.35
2018-08-25T09:46:35.981Z,16.71
2018-08-25T09:46:36.039Z,14.65
2018-08-25T09:46:36.128Z,15.02
2018-08-25T09:46:36.210Z,12.61
2018-08-25T09:46:36.282Z,14.91
2018-08-25T09:46:36.338Z,14.32
2018-08-25T09:46:36.395Z,11.16
2018-08-25T09:46:36.464Z,12.34
2018-08-25T09:46:36.531Z,12.41
2018-08-25T09:46:36.590Z,14.76
2018-08-25T09:46:36.663Z,10.57
2018-08-25T09:46:36.730Z,12.51
2018-08-25T09:46:36.808Z,12.21
2018-08-25T09:46:36.854Z,13.22
2018-08-25T09:46:36.917Z,11.19
2018-08-25T09:46:37.004Z,11.76
2018-08-25T09:46:37.124Z,13.79
2018-08-25T09:46:37.160Z,12.65
2018-08-25T09:46:37.244Z,12.52
2018-08-25T09:46:37.305Z,13.4
2018-08-25T09:46:37.365Z,12.45
2018-08-25T09:46:37.496Z,11.07
2018-08-25T09:46:37.551Z,12.52
2018-08-25T09:46:37.617Z,12.23
2018-08-25T09:46:37.662Z,11.14
2018-08-25T09:46:37.740Z,11.72
2018-08-25T09:46:37.850Z,12.61
2018-08-25T09:46:37.962Z,12.32
2018-08-25T09:46:38.069Z,12.55
2018-08-25T09:46:38.124Z,12.26
2018-08-25T09:46:38.191Z,15.57
2018-08-25T09:46:38.264Z,12.23
2018-08-25T09:46:38.320Z,12.95
2018-08-25T09:46:38.408Z,12.57
2018-08-25T09:46:38.451Z,10.67
2018-08-25T09:46:38.524Z,12.84
2018-08-25T09:46:38.583Z,10.9
2018-08-25T09:46:38.641Z,10.13
2018-08-25T09:46:38.708Z,10.55
2018-08-25T09:46:38.770Z,10.71
2018-08-25T09:46:38.809Z,10.46
2018-08-25T09:46:38.922Z,11.95
2018-08-25T09:46:39.019Z,11.35
2018-08-25T09:46:39.078Z,11.03
2018-08-25T09:46:39.132Z,12.21
2018-08-25T09:46:39.185Z,12.96
2018-08-25T09:46:39.254Z,12.89
2018-08-25T09:46:39.324Z,9.14
2018-08-25T09:46:39.382Z,13.78
2018-08-25T09:46:39.460Z,13.91
2018-08-25T09:46:39.518Z,12.81
2018-08-25T09:46:39.587Z,11.76
2018-08-25T09:46:39.635Z,12.06
2018-08-25T09:46:39.744Z,12.01
2018-08-25T09:46:39.800Z,12.42
2018-08-25T09:46:39.863Z,12.22
2018-08-25T09:46:39.946Z,14.53
2018-08-25T09:46:39.999Z,11.93
2018-08-25T09:46:40.048Z,11.1
2018-08-25T09:46:40.126Z,13.54
2018-08-25T09:46:40.193Z,11.11
2018-08-25T09:46:40.269Z,13.35
2018-08-25T09:46:40.325Z,13.27
2018-08-25T09:46:40.388Z,13.22
2018-08-25T09:46:40.466Z,13.28
2018-08-25T09:46:40.542Z,10.8
2018-08-25T09:46:40.630Z,15.34
2018-08-25T09:46:40.677Z,15.44
2018-08-25T09:46:40.761Z,12.3
2018-08-25T09:46:40.805Z,13.33
2018-08-25T09:46:40.876Z,13.13
2018-08-25T09:46:40.931Z,14.99
2018-08-25T09:46:40.993Z,12.85
2018-08-25T09:46:41.053Z,14.51
2018-08-25T09:46:41.132Z,14.9
2018-08-25T09:46:41.201Z,12.95
2018-08-25T09:46:41.266Z,15.33
2018-08-25T09:46:41.367Z,15.81
2018-08-25T09:46:41.423Z,16.89
2018-08-25T09:46:41.499Z,14.3
2018-08-25T09:46:41.600Z,15.77
2018-08-25T09:46:41.636Z,14.84
2018-08-25T09:46:41.687Z,16.19
2018-08-25T09:46:41.755Z,13.58
2018-08-25T09:46:41.813Z,15.46
2018-08-25T09:46:41.884Z,14.81
2018-08-25T09:46:41.962Z,15.05
2018-08-25T09:46:42.026Z,13.6
2018-08-25T09:46:42.101Z,14.17
2018-08-25T09:46:42.200Z,14.22
2018-08-25T09:46:42.262Z,16.01
2018-08-25T09:46:42.332Z,16.24
2018-08-25T09:46:42.369Z,14.46
2018-08-25T09:46:42.440Z,15
2018-08-25T09:46:42.514Z,15.79
2018-08-25T09:46:42.551Z,16.36
2018-08-25T09:46:42.585Z,16.36
2018-08-25T09:46:42.613Z,13.7
2018-08-25T09:46:42.691Z,15.38
2018-08-25T09:46:42.771Z,15.47
2018-08-25T09:46:42.813Z,14.5
2018-08-25T09:46:42.883Z,16.06
2018-08-25T09:46:43.028Z,16.41
2018-08-25T09:46:43.143Z,14.25
2018-08-25T09:46:43.200Z,15.16
2018-08-25T09:46:43.323Z,16.52
2018-08-25T09:46:43.442Z,15.66
2018-08-25T09:46:43.520Z,15.82
2018-08-25T09:46:43.637Z,15.82
2018-08-25T09:46:43.729Z,16.4
2018-08-25T09:46:43.826Z,16.79
2018-08-25T09:46:43.929Z,17.05
2018-08-25T09:46:44.007Z,17.49
2018-08-25T09:46:44.117Z,17.05
2018-08-25T09:46:44.176Z,18.33
2018-08-25T09:46:44.242Z,17.23
2018-08-25T09:46:44.330Z,16.66
2018-08-25T09:46:44.336Z,17.4
2018-08-25T09:46:44.410Z,16.76
2018-08-25T09:46:44.480Z,16.9
2018-08-25T09:46:44.548Z,17.55
2018-08-25T09:46:44.623Z,18.73
2018-08-25T09:46:44.660Z,14.92
2018-08-25T09:46:44.777Z,18.59
2018-08-25T09:46:44.831Z,18.52
2018-08-25T09:46:44.902Z,17.63
2018-08-25T09:46:44.973Z,19.06
2018-08-25T09:46:45.044Z,16.85
2018-08-25T09:46:45.092Z,18.03
2018-08-25T09:46:45.196Z,16.29
2018-08-25T09:46:45.261Z,19.4
2018-08-25T09:46:45.321Z,17.34
2018-08-25T09:46:45.437Z,18.23
2018-08-25T09:46:45.459Z,21.29
2018-08-25T09:46:45.499Z,15.55
2018-08-25T09:46:45.651Z,17.65
2018-08-25T09:46:45.699Z,17.98
2018-08-25T09:46:45.741Z,16.17
2018-08-25T09:46:45.813Z,17.33
2018-08-25T09:46:45.843Z,17.4
2018-08-25T09:46:45.957Z,16.14
2018-08-25T09:46:46.008Z,14.57
2018-08-25T09:46:46.079Z,16.46
2018-08-25T09:46:46.188Z,17.81
2018-08-25T09:46:46.188Z,14.8
2018-08-25T09:46:46.252Z,14.81
2018-08-25T09:46:46.335Z,16.82
2018-08-25T09:46:46.422Z,16.4
2018-08-25T09:46:46.522Z,14.24
2018-08-25T09:46:46.545Z,15.84
2018-08-25T09:46:46.627Z,16.87
2018-08-25T09:46:46.719Z,16.79
2018-08-25T09:46:46.748Z,18.91
2018-08-25T09:46:46.804Z,16.8
2018-08-25T09:46:46.877Z,14.37
2018-08-25T09:46:46.902Z,17.33
2018-08-25T09:46:46.989Z,19.24
2018-08-25T09:46:47.036Z,13.71
2018-08-25T09:46:47.134Z,17.53
2018-08-25T09:46:47.218Z,16.93
2018-08-25T09:46:47.331Z,17.26
2018-08-25T09:46:47.346Z,13.87
2018-08-25T09:46:47.430Z,15.73
2018-08-25T09:46:47.563Z,14.76
2018-08-25T09:46:47.567Z,19.57
2018-08-25T09:46:47.666Z,18.35
2018-08-25T09:46:47.683Z,14.75
2018-08-25T09:46:47.766Z,16.68
2018-08-25T09:46:47.862Z,15.23
2018-08-25T09:46:47.960Z,17.39
2018-08-25T09:46:47.961Z,16.47
2018-08-25T09:46:48.072Z,16.62
2018-08-25T09:46:48.088Z,17.16
2018-08-25T09:46:48.169Z,17.31
2018-08-25T09:46:48.264Z,14.98
2018-08-25T09:46:48.363Z,16.49
2018-08-25T09:46:48.380Z,15.46
2018-08-25T09:46:48.458Z,19.84
2018-08-25T09:46:48.553Z,14.93
2018-08-25T09:46:48.576Z,14.79
2018-08-25T09:46:48.659Z,16.02
2018-08-25T09:46:48.759Z,15.59
2018-08-25T09:46:48.777Z,16.26
2018-08-25T09:46:48.859Z,16.25
2018-08-25T09:46:48.939Z,16.36
2018-08-25T09:46:49.054Z,15.35
2018-08-25T09:46:49.113Z,17.2
2018-08-25T09:46:49.170Z,17.99
2018-08-25T09:46:49.224Z,16.26
2018-08-25T09:46:49.330Z,15.93
2018-08-25T09:46:49.330Z,17.42
2018-08-25T09:46:49.448Z,15.12
2018-08-25T09:46:49.532Z,16.14
2018-08-25T09:46:49.558Z,15.57
2018-08-25T09:46:49.729Z,15.47
2018-08-25T09:46:49.744Z,15.25
2018-08-25T09:46:49.830Z,15.24
2018-08-25T09:46:49.929Z,15.99
2018-08-25T09:46:49.950Z,18.21
2018-08-25T09:46:50.042Z,16.49
2018-08-25T09:46:50.058Z,17.53
2018-08-25T09:46:50.162Z,18.11
2018-08-25T09:46:50.195Z,15.8
2018-08-25T09:46:50.285Z,15.35
2018-08-25T09:46:50.376Z,15.96
2018-08-25T09:46:50.481Z,16.34
2018-08-25T09:46:50.583Z,15.65
2018-08-25T09:46:50.677Z,16.07
2018-08-25T09:46:50.773Z,14.84
2018-08-25T09:46:50.889Z,14.92
2018-08-25T09:46:50.978Z,16.39
2018-08-25T09:46:51.001Z,18.74
2018-08-25T09:46:51.093Z,18.66
2018-08-25T09:46:51.195Z,16.99
2018-08-25T09:46:51.235Z,15.97
2018-08-25T09:46:51.338Z,14.54
2018-08-25T09:46:51.372Z,15
2018-08-25T09:46:51.379Z,13.28
2018-08-25T09:46:51.477Z,17
2018-08-25T09:46:51.534Z,18.05
2018-08-25T09:46:51.642Z,9.78
2018-08-25T09:46:51.665Z,15.17
2018-08-25T09:46:51.759Z,16.24
2018-08-25T09:46:51.830Z,14.79
2018-08-25T09:46:52.079Z,13.23
2018-08-25T09:46:52.155Z,15.4
2018-08-25T09:46:52.188Z,17.67
2018-08-25T09:46:52.286Z,17.37
2018-08-25T09:46:52.308Z,20.65
2018-08-25T09:46:52.451Z,14.93
2018-08-25T09:46:52.477Z,15.91
2018-08-25T09:46:52.571Z,14.28
2018-08-25T09:46:52.676Z,15.88
2018-08-25T09:46:52.703Z,17.95
2018-08-25T09:46:52.901Z,14.94
2018-08-25T09:46:52.902Z,16.27
2018-08-25T09:46:53.026Z,13.95
2018-08-25T09:46:53.034Z,15.53
2018-08-25T09:46:53.131Z,16.46
2018-08-25T09:46:53.155Z,18.85
2018-08-25T09:46:53.208Z,17.1
2018-08-25T09:46:53.292Z,15.92